createdAt,value
2018-03-01T00:00:04.108Z,13.30
2018-03-01T00:01:04.144Z,13.60
2018-03-01T00:02:04.128Z,14.50
2018-03-01T00:03:04.135Z,14.20
2018-03-01T00:04:04.145Z,14.20
2018-03-01T00:05:04.152Z,14.10
2018-03-01T00:06:04.159Z,13.70
2018-03-01T00:07:04.168Z,13.60
2018-03-01T00:08:04.170Z,14.30
2018-03-01T00:09:04.172Z,14.70
2018-03-01T00:10:04.187Z,12.90
2018-03-01T00:11:04.191Z,13.80
2018-03-01T00:12:04.202Z,14.40
2018-03-01T00:13:04.203Z,14.70
2018-03-01T00:14:04.195Z,12.90
2018-03-01T00:15:04.215Z,12.10
2018-03-01T00:16:04.225Z,12.90
2018-03-01T00:17:04.234Z,13.50
2018-03-01T00:18:04.236Z,12.10
2018-03-01T00:19:04.292Z,14.50
2018-03-01T00:20:04.289Z,14.30
2018-03-01T00:21:04.247Z,12.60
2018-03-01T00:22:04.260Z,14.20
2018-03-01T00:23:04.273Z,13.60
2018-03-01T00:24:04.274Z,13.50
2018-03-01T00:25:04.283Z,13.40
2018-03-01T00:26:04.271Z,13.20
2018-03-01T00:27:04.285Z,14.60
2018-03-01T00:28:04.318Z,14.10
2018-03-01T00:29:04.293Z,14.50
2018-03-01T00:30:04.296Z,15.00
2018-03-01T00:31:04.310Z,15.00
2018-03-01T00:32:04.328Z,14.60
2018-03-01T00:33:04.332Z,15.80
2018-03-01T00:34:04.349Z,14.20
2018-03-01T00:35:04.331Z,14.60
2018-03-01T00:36:04.353Z,14.70
2018-03-01T00:37:04.358Z,14.20
2018-03-01T00:38:04.370Z,14.70
2018-03-01T00:39:04.365Z,14.40
2018-03-01T00:40:04.374Z,14.00
2018-03-01T00:41:04.387Z,14.40
2018-03-01T00:42:04.392Z,15.30
2018-03-01T00:43:04.406Z,14.00
2018-03-01T00:44:04.387Z,14.80
2018-03-01T00:45:04.408Z,15.50
2018-03-01T00:46:04.397Z,14.50
2018-03-01T00:47:04.409Z,13.50
2018-03-01T00:48:04.423Z,15.00
2018-03-01T00:49:04.431Z,14.10
2018-03-01T00:50:04.427Z,14.60
2018-03-01T00:51:04.434Z,15.60
2018-03-01T00:52:04.446Z,15.70
2018-03-01T00:53:04.449Z,12.70
2018-03-01T00:54:04.496Z,15.10
2018-03-01T00:55:04.473Z,15.30
2018-03-01T00:56:04.461Z,15.50
2018-03-01T00:57:04.479Z,15.00
2018-03-01T00:58:04.486Z,15.00
2018-03-01T00:59:04.488Z,15.50
2018-03-01T01:00:04.491Z,13.90
2018-03-01T01:01:04.511Z,15.30
2018-03-01T01:02:04.496Z,15.50
2018-03-01T01:03:04.516Z,16.00
2018-03-01T01:04:04.534Z,15.10
2018-03-01T01:05:04.543Z,15.80
2018-03-01T01:06:04.559Z,16.00
2018-03-01T01:07:04.544Z,14.90
2018-03-01T01:08:04.547Z,14.40
2018-03-01T01:09:04.569Z,14.80
2018-03-01T01:10:04.551Z,13.80
2018-03-01T01:11:04.558Z,14.80
2018-03-01T01:12:04.573Z,15.10
2018-03-01T01:13:04.594Z,14.70
2018-03-01T01:14:04.590Z,15.50
2018-03-01T01:15:04.610Z,15.50
2018-03-01T01:16:04.589Z,15.00
2018-03-01T01:17:04.653Z,14.70
2018-03-01T01:18:04.619Z,16.10
2018-03-01T01:19:04.613Z,14.20
2018-03-01T01:20:04.611Z,14.60
2018-03-01T01:21:04.631Z,15.20
2018-03-01T01:22:04.661Z,15.30
2018-03-01T01:23:04.636Z,15.20
2018-03-01T01:24:04.642Z,14.60
2018-03-01T01:25:04.747Z,15.00
2018-03-01T01:26:04.663Z,14.50
2018-03-01T01:27:04.673Z,13.40
2018-03-01T01:28:04.693Z,14.00
2018-03-01T01:29:04.677Z,14.80
2018-03-01T01:30:04.685Z,15.40
2018-03-01T01:31:04.685Z,14.30
2018-03-01T01:32:04.710Z,14.30
2018-03-01T01:33:04.727Z,14.70
2018-03-01T01:34:04.701Z,14.00
2018-03-01T01:35:04.706Z,14.90
2018-03-01T01:36:04.714Z,13.90
2018-03-01T01:37:04.728Z,16.10
2018-03-01T01:38:04.731Z,14.20
2018-03-01T01:39:04.751Z,14.00
2018-03-01T01:40:04.748Z,15.10
2018-03-01T01:41:04.770Z,14.70
2018-03-01T01:42:04.761Z,14.60
2018-03-01T01:43:04.766Z,14.30
2018-03-01T01:44:04.771Z,14.30
2018-03-01T01:45:04.780Z,13.70
2018-03-01T01:46:04.816Z,15.00
2018-03-01T01:47:04.786Z,14.20
2018-03-01T01:48:04.792Z,15.10
2018-03-01T01:49:04.796Z,14.70
2018-03-01T01:50:04.818Z,13.50
2018-03-01T01:51:04.822Z,15.00
2018-03-01T01:52:04.816Z,15.80
2018-03-01T01:53:04.839Z,15.10
2018-03-01T01:54:04.834Z,14.80
2018-03-01T01:55:04.875Z,15.80
2018-03-01T01:56:04.854Z,14.80
2018-03-01T01:57:04.846Z,14.60
2018-03-01T01:58:04.850Z,14.60
2018-03-01T01:59:04.861Z,15.40
2018-03-01T02:00:04.866Z,14.00
2018-03-01T02:01:04.867Z,14.20
2018-03-01T02:02:04.906Z,16.20
2018-03-01T02:03:04.888Z,15.00
2018-03-01T02:04:04.908Z,14.70
2018-03-01T02:05:04.901Z,14.70
2018-03-01T02:06:04.899Z,16.60
2018-03-01T02:07:04.907Z,15.20
2018-03-01T02:08:04.917Z,15.70
2018-03-01T02:09:04.926Z,14.70
2018-03-01T02:10:04.948Z,14.90
2018-03-01T02:11:04.934Z,13.20
2018-03-01T02:12:04.937Z,14.20
2018-03-01T02:13:04.942Z,13.90
2018-03-01T02:14:04.952Z,14.90
2018-03-01T02:15:04.976Z,15.20
2018-03-01T02:16:04.977Z,15.60
2018-03-01T02:17:04.978Z,15.20
2018-03-01T02:18:04.970Z,14.90
2018-03-01T02:19:05.009Z,14.70
2018-03-01T02:20:04.993Z,15.30
2018-03-01T02:21:05.010Z,14.30
2018-03-01T02:22:05.002Z,14.70
2018-03-01T02:23:05.024Z,15.10
2018-03-01T02:24:05.014Z,13.90
2018-03-01T02:25:05.020Z,14.30
2018-03-01T02:26:05.025Z,14.70
2018-03-01T02:27:05.030Z,13.30
2018-03-01T02:28:05.039Z,13.90
2018-03-01T02:29:05.046Z,14.80
2018-03-01T02:30:05.057Z,15.50
2018-03-01T02:31:05.070Z,15.20
2018-03-01T02:32:05.107Z,14.90
2018-03-01T02:33:05.075Z,15.70
2018-03-01T02:34:05.091Z,13.80
2018-03-01T02:35:05.096Z,14.10
2018-03-01T02:36:05.087Z,15.10
2018-03-01T02:37:05.096Z,14.60
2018-03-01T02:38:05.131Z,14.40
2018-03-01T02:39:05.113Z,15.30
2018-03-01T02:40:05.112Z,15.30
2018-03-01T02:41:05.140Z,16.30
2018-03-01T02:42:05.126Z,13.80
2018-03-01T02:43:05.145Z,15.30
2018-03-01T02:44:05.147Z,14.80
2018-03-01T02:45:05.143Z,16.00
2018-03-01T02:46:05.173Z,14.20
2018-03-01T02:47:05.161Z,14.70
2018-03-01T02:48:05.162Z,14.20
2018-03-01T02:49:05.169Z,14.20
2018-03-01T02:50:05.192Z,14.60
2018-03-01T02:51:05.183Z,13.70
2018-03-01T02:52:05.196Z,14.20
2018-03-01T02:53:05.239Z,14.10
2018-03-01T02:54:05.203Z,14.70
2018-03-01T02:55:05.212Z,13.60
2018-03-01T02:56:05.237Z,14.00
2018-03-01T02:57:05.223Z,14.10
2018-03-01T02:58:05.223Z,13.80
2018-03-01T02:59:05.295Z,14.00
2018-03-01T03:00:05.270Z,13.50
2018-03-01T03:01:05.247Z,14.40
2018-03-01T03:02:05.269Z,13.80
2018-03-01T03:03:05.271Z,14.20
2018-03-01T03:04:05.263Z,14.00
2018-03-01T03:05:05.274Z,13.50
2018-03-01T03:06:05.299Z,14.50
2018-03-01T03:07:05.295Z,14.60
2018-03-01T03:08:05.292Z,12.80
2018-03-01T03:09:05.299Z,14.70
2018-03-01T03:10:05.325Z,14.40
2018-03-01T03:11:05.330Z,14.20
2018-03-01T03:12:05.339Z,14.80
2018-03-01T03:13:05.326Z,14.00
2018-03-01T03:14:05.332Z,14.80
2018-03-01T03:15:05.350Z,15.60
2018-03-01T03:16:05.345Z,13.00
2018-03-01T03:17:05.350Z,14.00
2018-03-01T03:18:05.368Z,14.00
2018-03-01T03:19:05.359Z,12.60
2018-03-01T03:20:05.416Z,12.90
2018-03-01T03:21:05.367Z,14.60
2018-03-01T03:22:05.383Z,14.20
2018-03-01T03:23:05.421Z,14.30
2018-03-01T03:24:05.417Z,14.70
2018-03-01T03:25:05.423Z,14.90
2018-03-01T03:26:05.404Z,13.30
2018-03-01T03:27:05.443Z,14.20
2018-03-01T03:28:05.424Z,13.60
2018-03-01T03:29:05.419Z,14.20
2018-03-01T03:30:05.436Z,13.30
2018-03-01T03:31:05.443Z,14.60
2018-03-01T03:32:05.450Z,14.80
2018-03-01T03:33:05.448Z,14.00
2018-03-01T03:34:05.460Z,13.70
2018-03-01T03:35:05.466Z,12.80
2018-03-01T03:36:05.463Z,14.40
2018-03-01T03:37:05.476Z,14.30
2018-03-01T03:38:05.484Z,14.60
2018-03-01T03:39:05.503Z,14.20
2018-03-01T03:40:05.524Z,13.10
2018-03-01T03:41:05.500Z,14.30
2018-03-01T03:42:05.502Z,14.30
2018-03-01T03:43:05.536Z,13.80
2018-03-01T03:44:05.554Z,13.50
2018-03-01T03:45:05.523Z,14.40
2018-03-01T03:46:05.527Z,15.00
2018-03-01T03:47:05.544Z,14.80
2018-03-01T03:48:05.551Z,13.90
2018-03-01T03:49:05.554Z,14.10
2018-03-01T03:50:05.565Z,13.50
2018-03-01T03:51:05.580Z,13.60
2018-03-01T03:52:05.579Z,13.90
2018-03-01T03:53:05.608Z,13.90
2018-03-01T03:54:05.577Z,13.40
2018-03-01T03:55:05.601Z,14.50
2018-03-01T03:56:05.587Z,13.20
2018-03-01T03:57:05.596Z,14.00
2018-03-01T03:58:05.603Z,14.70
2018-03-01T03:59:05.633Z,14.10
2018-03-01T04:00:05.631Z,14.30
2018-03-01T04:01:05.613Z,14.70
2018-03-01T04:02:05.642Z,13.90
2018-03-01T04:03:05.657Z,14.80
2018-03-01T04:04:05.648Z,14.90
2018-03-01T04:05:05.647Z,14.80
2018-03-01T04:06:05.662Z,13.80
2018-03-01T04:07:05.656Z,13.60
2018-03-01T04:08:05.677Z,13.10
2018-03-01T04:09:05.675Z,12.10
2018-03-01T04:10:05.702Z,12.70
2018-03-01T04:11:05.692Z,11.20
2018-03-01T04:12:05.692Z,13.20
2018-03-01T04:13:05.697Z,14.20
2018-03-01T04:14:05.735Z,13.90
2018-03-01T04:15:05.780Z,12.80
2018-03-01T04:16:05.713Z,13.60
2018-03-01T04:17:05.714Z,13.70
2018-03-01T04:18:05.730Z,13.60
2018-03-01T04:19:05.743Z,13.80
2018-03-01T04:20:05.750Z,13.70
2018-03-01T04:21:05.764Z,12.50
2018-03-01T04:22:05.749Z,13.00
2018-03-01T04:23:05.754Z,13.30
2018-03-01T04:24:05.767Z,13.00
2018-03-01T04:25:05.793Z,12.60
2018-03-01T04:26:05.787Z,13.30
2018-03-01T04:27:05.785Z,12.10
2018-03-01T04:28:05.865Z,13.60
2018-03-01T04:29:05.842Z,13.90
2018-03-01T04:30:05.806Z,13.80
2018-03-01T04:31:05.820Z,12.80
2018-03-01T04:32:05.838Z,14.30
2018-03-01T04:33:05.840Z,14.50
2018-03-01T04:34:05.849Z,13.20
2018-03-01T04:35:05.835Z,12.90
2018-03-01T04:36:05.836Z,12.60
2018-03-01T04:37:05.869Z,13.70
2018-03-01T04:38:05.855Z,13.70
2018-03-01T04:39:05.853Z,12.50
2018-03-01T04:40:05.937Z,13.10
2018-03-01T04:41:05.869Z,12.10
2018-03-01T04:42:05.900Z,12.90
2018-03-01T04:43:05.882Z,13.00
2018-03-01T04:44:05.893Z,13.60
2018-03-01T04:45:05.896Z,13.00
2018-03-01T04:46:05.910Z,13.00
2018-03-01T04:47:05.908Z,13.50
2018-03-01T04:48:05.946Z,13.70
2018-03-01T04:49:05.935Z,12.70
2018-03-01T04:50:05.946Z,13.20
2018-03-01T04:51:05.939Z,11.20
2018-03-01T04:52:05.956Z,12.50
2018-03-01T04:53:05.955Z,12.60
2018-03-01T04:54:05.955Z,12.70
2018-03-01T04:55:06.007Z,13.20
2018-03-01T04:56:05.976Z,12.20
2018-03-01T04:57:05.996Z,12.70
2018-03-01T04:58:05.978Z,12.80
2018-03-01T04:59:05.978Z,13.00
2018-03-01T05:00:05.995Z,12.20
2018-03-01T05:01:05.998Z,12.40
2018-03-01T05:02:06.020Z,12.20
2018-03-01T05:03:06.031Z,12.40
2018-03-01T05:04:06.048Z,11.40
2018-03-01T05:05:06.016Z,12.20
2018-03-01T05:06:06.059Z,13.00
2018-03-01T05:07:06.046Z,12.60
2018-03-01T05:08:06.102Z,11.30
2018-03-01T05:09:06.063Z,11.80
2018-03-01T05:10:06.053Z,11.50
2018-03-01T05:11:06.061Z,12.30
2018-03-01T05:12:06.135Z,12.10
2018-03-01T05:13:06.066Z,12.90
2018-03-01T05:14:06.077Z,12.00
2018-03-01T05:15:06.084Z,12.10
2018-03-01T05:16:06.089Z,11.40
2018-03-01T05:17:06.094Z,12.10
2018-03-01T05:18:06.101Z,11.40
2018-03-01T05:19:06.128Z,12.60
2018-03-01T05:20:06.163Z,12.30
2018-03-01T05:21:06.135Z,12.00
2018-03-01T05:22:06.121Z,11.80
2018-03-01T05:23:06.126Z,12.00
2018-03-01T05:24:06.212Z,12.90
2018-03-01T05:25:06.154Z,12.30
2018-03-01T05:26:06.172Z,12.80
2018-03-01T05:27:06.178Z,12.10
2018-03-01T05:28:06.229Z,13.40
2018-03-01T05:29:06.166Z,13.00
2018-03-01T05:30:06.180Z,13.20
2018-03-01T05:31:06.182Z,12.00
2018-03-01T05:32:06.196Z,11.50
2018-03-01T05:33:06.201Z,12.90
2018-03-01T05:34:06.213Z,11.90
2018-03-01T05:35:06.216Z,13.20
2018-03-01T05:36:06.207Z,12.20
2018-03-01T05:37:06.230Z,11.90
2018-03-01T05:38:06.275Z,11.80
2018-03-01T05:39:06.224Z,12.30
2018-03-01T05:40:06.238Z,13.50
2018-03-01T05:41:06.238Z,13.80
2018-03-01T05:42:06.243Z,12.90
2018-03-01T05:43:06.286Z,12.90
2018-03-01T05:44:06.282Z,12.50
2018-03-01T05:45:06.268Z,12.60
2018-03-01T05:46:06.272Z,12.60
2018-03-01T05:47:06.338Z,12.20
2018-03-01T05:48:06.318Z,12.20
2018-03-01T05:49:06.285Z,13.40
2018-03-01T05:50:06.328Z,12.60
2018-03-01T05:51:06.346Z,12.00
2018-03-01T05:52:06.301Z,11.40
2018-03-01T05:53:06.312Z,13.00
2018-03-01T05:54:06.354Z,12.50
2018-03-01T05:55:06.334Z,11.60
2018-03-01T05:56:06.347Z,13.80
2018-03-01T05:57:06.344Z,13.30
2018-03-01T05:58:06.347Z,12.20
2018-03-01T05:59:06.357Z,11.90
2018-03-01T06:00:06.349Z,11.40
2018-03-01T06:01:06.368Z,11.90
2018-03-01T06:02:06.370Z,12.30
2018-03-01T06:03:06.374Z,12.60
2018-03-01T06:04:06.389Z,14.00
2018-03-01T06:05:06.407Z,13.70
2018-03-01T06:06:06.399Z,12.50
2018-03-01T06:07:06.395Z,12.50
2018-03-01T06:08:06.403Z,12.50
2018-03-01T06:09:06.423Z,13.20
2018-03-01T06:10:06.432Z,13.40
2018-03-01T06:11:06.435Z,12.60
2018-03-01T06:12:06.451Z,12.20
2018-03-01T06:13:06.436Z,12.90
2018-03-01T06:14:06.449Z,12.70
2018-03-01T06:15:06.449Z,12.70
2018-03-01T06:16:06.457Z,13.10
2018-03-01T06:17:06.496Z,13.40
2018-03-01T06:18:06.474Z,12.20
2018-03-01T06:19:06.479Z,12.40
2018-03-01T06:20:06.492Z,13.00
2018-03-01T06:21:06.482Z,13.00
2018-03-01T06:22:06.506Z,12.60
2018-03-01T06:23:06.504Z,12.90
2018-03-01T06:24:06.524Z,13.60
2018-03-01T06:25:06.522Z,13.30
2018-03-01T06:26:06.516Z,12.70
2018-03-01T06:27:06.523Z,12.50
2018-03-01T06:28:06.552Z,13.30
2018-03-01T06:29:06.532Z,13.10
2018-03-01T06:30:06.556Z,13.00
2018-03-01T06:31:06.561Z,13.30
2018-03-01T06:32:06.549Z,13.10
2018-03-01T06:33:06.570Z,11.70
2018-03-01T06:34:06.562Z,12.70
2018-03-01T06:35:06.568Z,12.00
2018-03-01T06:36:06.609Z,12.10
2018-03-01T06:37:06.639Z,13.40
2018-03-01T06:38:06.591Z,12.00
2018-03-01T06:39:06.598Z,13.20
2018-03-01T06:40:06.601Z,13.00
2018-03-01T06:41:06.615Z,13.10
2018-03-01T06:42:06.619Z,13.00
2018-03-01T06:43:06.640Z,13.50
2018-03-01T06:44:06.628Z,13.10
2018-03-01T06:45:06.652Z,13.30
2018-03-01T06:46:06.641Z,12.80
2018-03-01T06:47:06.663Z,12.10
2018-03-01T06:48:06.649Z,13.30
2018-03-01T06:49:06.704Z,12.80
2018-03-01T06:50:06.666Z,13.20
2018-03-01T06:51:06.684Z,13.60
2018-03-01T06:52:06.706Z,13.60
2018-03-01T06:53:06.687Z,14.30
2018-03-01T06:54:06.699Z,13.60
2018-03-01T06:55:06.705Z,13.50
2018-03-01T06:56:06.746Z,13.80
2018-03-01T06:57:06.708Z,13.50
2018-03-01T06:58:06.732Z,14.30
2018-03-01T06:59:06.728Z,13.70
2018-03-01T07:00:06.747Z,14.20
2018-03-01T07:01:06.738Z,13.40
2018-03-01T07:02:06.772Z,12.80
2018-03-01T07:03:06.752Z,13.80
2018-03-01T07:04:06.769Z,13.60
2018-03-01T07:05:06.790Z,14.10
2018-03-01T07:06:06.783Z,13.10
2018-03-01T07:07:06.792Z,12.80
2018-03-01T07:08:06.787Z,14.70
2018-03-01T07:09:06.803Z,12.90
2018-03-01T07:10:06.805Z,13.90
2018-03-01T07:11:06.829Z,13.90
2018-03-01T07:12:06.857Z,13.70
2018-03-01T07:13:06.829Z,14.30
2018-03-01T07:14:06.837Z,13.90
2018-03-01T07:15:06.845Z,12.90
2018-03-01T07:16:06.875Z,13.20
2018-03-01T07:17:06.883Z,12.80
2018-03-01T07:18:06.876Z,12.80
2018-03-01T07:19:06.865Z,14.40
2018-03-01T07:20:06.883Z,13.90
2018-03-01T07:21:06.899Z,12.70
2018-03-01T07:22:06.887Z,14.30
2018-03-01T07:23:07.010Z,13.70
2018-03-01T07:24:06.903Z,13.50
2018-03-01T07:25:06.913Z,12.60
2018-03-01T07:26:06.918Z,11.60
2018-03-01T07:27:06.925Z,13.70
2018-03-01T07:28:06.937Z,13.50
2018-03-01T07:29:06.998Z,14.00
2018-03-01T07:30:06.954Z,13.90
2018-03-01T07:31:06.960Z,13.60
2018-03-01T07:32:06.971Z,14.20
2018-03-01T07:33:06.975Z,13.50
2018-03-01T07:34:07.071Z,14.00
2018-03-01T07:35:06.997Z,14.40
2018-03-01T07:36:07.016Z,14.40
2018-03-01T07:37:07.022Z,13.90
2018-03-01T07:38:07.026Z,15.00
2018-03-01T07:39:07.044Z,14.80
2018-03-01T07:40:07.075Z,14.80
2018-03-01T07:41:07.055Z,14.10
2018-03-01T07:42:07.070Z,13.80
2018-03-01T07:43:07.070Z,13.70
2018-03-01T07:44:07.080Z,13.80
2018-03-01T07:45:07.091Z,14.40
2018-03-01T07:46:07.164Z,14.40
2018-03-01T07:47:07.121Z,13.50
2018-03-01T07:48:07.117Z,14.60
2018-03-01T07:49:07.153Z,14.10
2018-03-01T07:50:07.153Z,13.40
2018-03-01T07:51:07.157Z,13.70
2018-03-01T07:52:07.177Z,13.30
2018-03-01T07:53:07.180Z,13.80
2018-03-01T07:54:07.201Z,14.10
2018-03-01T07:55:07.222Z,13.50
2018-03-01T07:56:07.203Z,14.40
2018-03-01T07:57:07.210Z,12.70
2018-03-01T07:58:07.231Z,13.30
2018-03-01T07:59:07.250Z,13.70
2018-03-01T08:00:07.236Z,14.30
2018-03-01T08:01:07.251Z,13.50
2018-03-01T08:02:07.257Z,13.20
2018-03-01T08:03:07.264Z,14.10
2018-03-01T08:04:07.300Z,12.90
2018-03-01T08:05:07.288Z,14.20
2018-03-01T08:06:07.289Z,13.40
2018-03-01T08:07:07.316Z,12.80
2018-03-01T08:08:07.316Z,13.40
2018-03-01T08:09:07.324Z,13.40
2018-03-01T08:10:07.352Z,13.50
2018-03-01T08:11:07.339Z,13.10
2018-03-01T08:12:07.371Z,12.90
2018-03-01T08:13:07.364Z,12.70
2018-03-01T08:14:07.386Z,12.80
2018-03-01T08:15:07.400Z,13.40
2018-03-01T08:16:07.408Z,13.10
2018-03-01T08:17:07.412Z,13.80
2018-03-01T08:18:07.430Z,13.10
2018-03-01T08:19:07.438Z,11.70
2018-03-01T08:20:07.458Z,12.40
2018-03-01T08:21:07.484Z,13.00
2018-03-01T08:22:07.473Z,13.20
2018-03-01T08:23:07.523Z,12.60
2018-03-01T08:24:07.513Z,11.10
2018-03-01T08:25:07.528Z,11.90
2018-03-01T08:26:07.544Z,12.40
2018-03-01T08:27:07.544Z,12.50
2018-03-01T08:28:07.548Z,12.70
2018-03-01T08:29:07.582Z,12.30
2018-03-01T08:30:07.572Z,12.40
2018-03-01T08:31:07.591Z,11.60
2018-03-01T08:32:07.610Z,11.60
2018-03-01T08:33:07.611Z,11.40
2018-03-01T08:34:07.648Z,12.20
2018-03-01T08:35:07.673Z,12.40
2018-03-01T08:36:07.644Z,12.30
2018-03-01T08:37:07.668Z,12.00
2018-03-01T08:38:07.702Z,11.80
2018-03-01T08:39:07.704Z,11.70
2018-03-01T08:40:07.782Z,11.90
2018-03-01T08:41:07.702Z,11.00
2018-03-01T08:42:07.724Z,11.30
2018-03-01T08:43:07.730Z,11.30
2018-03-01T08:44:07.743Z,11.50
2018-03-01T08:45:07.777Z,11.20
2018-03-01T08:46:07.835Z,10.60
2018-03-01T08:47:07.803Z,10.70
2018-03-01T08:48:07.803Z,11.20
2018-03-01T08:49:07.818Z,10.90
2018-03-01T08:50:07.834Z,11.00
2018-03-01T08:51:07.884Z,11.20
2018-03-01T08:52:07.824Z,11.20
2018-03-01T08:53:07.876Z,12.40
2018-03-01T08:54:07.856Z,11.10
2018-03-01T08:55:07.880Z,10.60
2018-03-01T08:56:07.860Z,11.10
2018-03-01T08:57:07.873Z,10.60
2018-03-01T08:58:07.905Z,11.10
2018-03-01T08:59:07.944Z,10.90
2018-03-01T09:00:07.969Z,9.90
2018-03-01T09:01:07.911Z,10.00
2018-03-01T09:02:07.919Z,11.30
2018-03-01T09:03:07.931Z,10.20
2018-03-01T09:04:07.936Z,10.10
2018-03-01T09:05:07.947Z,11.30
2018-03-01T09:06:07.976Z,11.00
2018-03-01T09:07:07.962Z,9.90
2018-03-01T09:08:07.971Z,10.10
2018-03-01T09:09:07.981Z,9.70
2018-03-01T09:10:07.999Z,8.90
2018-03-01T09:11:08.017Z,9.60
2018-03-01T09:12:08.022Z,8.60
2018-03-01T09:13:08.070Z,8.70
2018-03-01T09:14:08.031Z,8.80
2018-03-01T09:15:08.091Z,8.70
2018-03-01T09:16:08.039Z,9.70
2018-03-01T09:17:08.048Z,9.30
2018-03-01T09:18:08.097Z,10.10
2018-03-01T09:19:08.072Z,10.00
2018-03-01T09:20:08.076Z,11.00
2018-03-01T09:21:08.093Z,9.20
2018-03-01T09:22:08.099Z,9.50
2018-03-01T09:23:08.101Z,9.30
2018-03-01T09:24:08.116Z,8.90
2018-03-01T09:25:08.132Z,8.30
2018-03-01T09:26:08.125Z,8.40
2018-03-01T09:27:08.163Z,9.30
2018-03-01T09:28:08.159Z,9.20
2018-03-01T09:29:08.166Z,8.60
2018-03-01T09:30:08.168Z,8.70
2018-03-01T09:31:08.169Z,8.90
2018-03-01T09:32:08.181Z,9.80
2018-03-01T09:33:08.199Z,9.70
2018-03-01T09:34:08.223Z,9.30
2018-03-01T09:35:08.226Z,9.90
2018-03-01T09:36:08.235Z,9.70
2018-03-01T09:37:08.266Z,9.60
2018-03-01T09:38:08.239Z,9.50
2018-03-01T09:39:08.238Z,10.30
2018-03-01T09:40:08.262Z,10.50
2018-03-01T09:41:08.254Z,11.00
2018-03-01T09:42:08.269Z,9.40
2018-03-01T09:43:08.322Z,9.10
2018-03-01T09:44:08.282Z,9.90
2018-03-01T09:45:08.301Z,9.60
2018-03-01T09:46:08.311Z,10.30
2018-03-01T09:47:08.315Z,9.60
2018-03-01T09:48:08.347Z,9.50
2018-03-01T09:49:08.342Z,8.90
2018-03-01T09:50:08.343Z,9.10
2018-03-01T09:51:08.346Z,9.40
2018-03-01T09:52:08.356Z,10.00
2018-03-01T09:53:08.372Z,10.40
2018-03-01T09:54:08.369Z,9.30
2018-03-01T09:55:08.376Z,8.90
2018-03-01T09:56:08.404Z,9.00
2018-03-01T09:57:08.406Z,9.10
2018-03-01T09:58:08.436Z,9.40
2018-03-01T09:59:08.413Z,9.80
2018-03-01T10:00:08.465Z,9.80
2018-03-01T10:01:08.438Z,9.70
2018-03-01T10:02:08.447Z,10.50
2018-03-01T10:03:08.461Z,10.40
2018-03-01T10:04:08.461Z,10.20
2018-03-01T10:05:08.523Z,9.80
2018-03-01T10:06:08.484Z,9.70
2018-03-01T10:07:08.538Z,9.90
2018-03-01T10:08:08.520Z,9.60
2018-03-01T10:09:08.506Z,9.20
2018-03-01T10:10:08.550Z,10.10
2018-03-01T10:11:08.525Z,9.80
2018-03-01T10:12:08.552Z,9.90
2018-03-01T10:13:08.544Z,9.80
2018-03-01T10:14:08.547Z,10.20
2018-03-01T10:15:08.560Z,10.40
2018-03-01T10:16:08.566Z,10.80
2018-03-01T10:17:08.579Z,9.70
2018-03-01T10:18:08.657Z,11.00
2018-03-01T10:19:08.609Z,10.50
2018-03-01T10:20:08.601Z,10.50
2018-03-01T10:21:08.623Z,11.00
2018-03-01T10:22:08.618Z,10.70
2018-03-01T10:23:08.633Z,10.40
2018-03-01T10:24:08.636Z,10.10
2018-03-01T10:25:08.752Z,10.20
2018-03-01T10:26:08.673Z,10.70
2018-03-01T10:27:08.684Z,11.60
2018-03-01T10:28:08.689Z,9.90
2018-03-01T10:29:08.695Z,10.60
2018-03-01T10:30:08.690Z,9.90
2018-03-01T10:31:08.709Z,10.40
2018-03-01T10:32:08.717Z,10.40
2018-03-01T10:33:08.736Z,10.30
2018-03-01T10:34:08.751Z,9.60
2018-03-01T10:35:08.771Z,9.80
2018-03-01T10:36:08.810Z,9.60
2018-03-01T10:37:08.805Z,9.20
2018-03-01T10:38:08.801Z,9.70
2018-03-01T10:39:08.783Z,10.30
2018-03-01T10:40:08.803Z,9.60
2018-03-01T10:41:08.810Z,10.40
2018-03-01T10:42:08.827Z,10.40
2018-03-01T10:43:08.825Z,10.00
2018-03-01T10:44:08.848Z,11.10
2018-03-01T10:45:08.834Z,9.50
2018-03-01T10:46:08.858Z,10.50
2018-03-01T10:47:08.864Z,9.70
2018-03-01T10:48:08.888Z,10.10
2018-03-01T10:49:08.884Z,9.60
2018-03-01T10:50:08.882Z,9.40
2018-03-01T10:51:08.890Z,9.70
2018-03-01T10:52:08.905Z,9.90
2018-03-01T10:53:08.934Z,9.60
2018-03-01T10:54:08.930Z,11.00
2018-03-01T10:55:08.930Z,12.10
2018-03-01T10:56:08.934Z,10.50
2018-03-01T10:57:08.979Z,11.70
2018-03-01T10:58:08.964Z,13.50
2018-03-01T10:59:08.980Z,10.30
2018-03-01T11:00:08.994Z,9.00
2018-03-01T11:01:08.982Z,9.00
2018-03-01T11:02:08.991Z,8.90
2018-03-01T11:03:09.009Z,10.80
2018-03-01T11:04:09.059Z,10.10
2018-03-01T11:05:09.033Z,9.20
2018-03-01T11:06:09.136Z,9.10
2018-03-01T11:07:09.087Z,9.90
2018-03-01T11:08:09.049Z,10.10
2018-03-01T11:09:09.097Z,9.80
2018-03-01T11:10:09.094Z,11.00
2018-03-01T11:11:09.111Z,10.30
2018-03-01T11:12:09.100Z,10.50
2018-03-01T11:13:09.146Z,9.80
2018-03-01T11:14:09.104Z,10.20
2018-03-01T11:15:09.139Z,11.20
2018-03-01T11:16:09.131Z,10.00
2018-03-01T11:17:09.130Z,10.50
2018-03-01T11:18:09.147Z,11.10
2018-03-01T11:19:09.179Z,10.10
2018-03-01T11:20:09.170Z,10.60
2018-03-01T11:21:09.176Z,9.90
2018-03-01T11:22:09.223Z,9.70
2018-03-01T11:23:09.311Z,9.90
2018-03-01T11:24:09.207Z,10.30
2018-03-01T11:25:09.217Z,10.60
2018-03-01T11:26:09.219Z,10.70
2018-03-01T11:27:09.229Z,10.10
2018-03-01T11:28:09.243Z,10.10
2018-03-01T11:29:09.258Z,9.70
2018-03-01T11:30:09.253Z,9.80
2018-03-01T11:31:09.284Z,10.60
2018-03-01T11:32:09.291Z,9.80
2018-03-01T11:33:09.291Z,10.10
2018-03-01T11:34:09.368Z,10.10
2018-03-01T11:35:09.323Z,9.60
2018-03-01T11:36:09.325Z,9.20
2018-03-01T11:37:09.334Z,9.80
2018-03-01T11:38:09.357Z,10.10
2018-03-01T11:39:09.389Z,9.50
2018-03-01T11:40:09.362Z,10.30
2018-03-01T11:41:09.454Z,9.50
2018-03-01T11:42:09.410Z,11.20
2018-03-01T11:43:09.386Z,9.40
2018-03-01T11:44:09.391Z,9.10
2018-03-01T11:45:09.414Z,10.50
2018-03-01T11:46:09.451Z,10.00
2018-03-01T11:47:09.427Z,10.80
2018-03-01T11:48:09.484Z,9.60
2018-03-01T11:49:09.497Z,11.00
2018-03-01T11:50:09.444Z,8.80
2018-03-01T11:51:09.485Z,9.40
2018-03-01T11:52:09.468Z,9.70
2018-03-01T11:53:09.511Z,10.20
2018-03-01T11:54:09.500Z,10.40
2018-03-01T11:55:09.523Z,10.50
2018-03-01T11:56:09.523Z,10.10
2018-03-01T11:57:09.535Z,10.40
2018-03-01T11:58:09.531Z,11.50
2018-03-01T11:59:09.611Z,9.90
2018-03-01T12:00:09.608Z,10.60
2018-03-01T12:01:09.555Z,10.20
2018-03-01T12:02:09.605Z,10.40
2018-03-01T12:03:09.588Z,10.80
2018-03-01T12:04:09.596Z,9.90
2018-03-01T12:05:09.640Z,9.40
2018-03-01T12:06:09.616Z,10.50
2018-03-01T12:07:09.641Z,11.10
2018-03-01T12:08:09.639Z,9.50
2018-03-01T12:09:09.685Z,9.60
2018-03-01T12:10:09.673Z,9.50
2018-03-01T12:11:09.674Z,9.50
2018-03-01T12:12:09.682Z,9.50
2018-03-01T12:13:09.663Z,10.90
2018-03-01T12:14:09.709Z,10.60
2018-03-01T12:15:09.702Z,9.90
2018-03-01T12:16:09.722Z,10.50
2018-03-01T12:17:09.730Z,9.90
2018-03-01T12:18:09.748Z,10.60
2018-03-01T12:19:09.744Z,10.30
2018-03-01T12:20:09.736Z,10.40
2018-03-01T12:21:09.777Z,9.50
2018-03-01T12:22:09.746Z,10.00
2018-03-01T12:23:09.782Z,9.70
2018-03-01T12:24:09.838Z,9.30
2018-03-01T12:25:09.779Z,10.50
2018-03-01T12:26:09.802Z,9.50
2018-03-01T12:27:09.797Z,9.90
2018-03-01T12:28:09.813Z,10.50
2018-03-01T12:29:09.829Z,9.90
2018-03-01T12:30:09.832Z,10.00
2018-03-01T12:31:09.834Z,10.30
2018-03-01T12:32:09.848Z,10.60
2018-03-01T12:33:09.864Z,9.80
2018-03-01T12:34:09.883Z,9.90
2018-03-01T12:35:09.894Z,10.00
2018-03-01T12:36:09.883Z,10.60
2018-03-01T12:37:09.912Z,9.20
2018-03-01T12:38:09.920Z,10.10
2018-03-01T12:39:09.916Z,9.40
2018-03-01T12:40:09.927Z,9.70
2018-03-01T12:41:09.955Z,9.50
2018-03-01T12:42:09.941Z,10.00
2018-03-01T12:43:09.964Z,10.00
2018-03-01T12:44:09.979Z,9.90
2018-03-01T12:45:09.971Z,10.50
2018-03-01T12:46:10.041Z,9.70
2018-03-01T12:47:09.989Z,9.90
2018-03-01T12:48:10.001Z,10.80
2018-03-01T12:49:10.012Z,9.90
2018-03-01T12:50:10.017Z,10.10
2018-03-01T12:51:10.043Z,10.10
2018-03-01T12:52:10.107Z,9.90
2018-03-01T12:53:10.066Z,10.10
2018-03-01T12:54:10.076Z,9.30
2018-03-01T12:55:10.061Z,10.00
2018-03-01T12:56:10.141Z,10.60